KSAD/SAD METAR and TAF weather

Enter ICAO airport designator
Station Type Date Time Source
KSAD METAR 2019/06/26 05:51 UTC NOAA

KSAD 260551Z AUTO 30010KT 10SM CLR 28/M03 A2991 RMK AO2 SLP065 T02831033 10389 20278 51020


Station Type Date Time Source
KSAD Decoded METAR 2019/06/26 05:51 UTC NOAA

SAFFORD MUNICIPAL AIRPORT, AZ, United States (KSAD) 32-51N 109-38W 962M
Jun 26, 2019 - 01:51 AM EDT / 2019.06.26 0551 UTC
Wind: from the WNW (300 degrees) at 12 MPH (10 KT):0
Visibility: 10 mile(s):0
Sky conditions: clear
Temperature: 82.9 F (28.3 C)
Dew Point: 26.1 F (-3.3 C)
Relative Humidity: 12%
Pressure (altimeter): 29.91 in. Hg (1012 hPa)
Pressure tendency: 0.06 inches (2.0 hPa) higher than three hours ago
ob: KSAD 260551Z AUTO 30010KT 10SM CLR 28/M03 A2991 RMK AO2 SLP065 T02831033 10389 20278 51020
cycle: 6

Station Type Date Time Source
KSAD TAF UTC NOAA

Error!

Example: see airport list